sensor_id;sensor_type;location;lat;lon;timestamp;P1;durP1;ratioP1;P2;durP2;ratioP2
12968;SDS011;6549;53.128;8.182;2024-03-08T00:02:27;36.70;;;18.30;;
12968;SDS011;6549;53.128;8.182;2024-03-08T00:05:29;37.63;;;18.40;;
12968;SDS011;6549;53.128;8.182;2024-03-08T00:08:29;33.70;;;16.75;;
12968;SDS011;6549;53.128;8.182;2024-03-08T00:11:30;37.47;;;17.83;;
12968;SDS011;6549;53.128;8.182;2024-03-08T00:14:31;33.15;;;17.10;;
12968;SDS011;6549;53.128;8.182;2024-03-08T00:17:31;33.35;;;16.67;;
12968;SDS011;6549;53.128;8.182;2024-03-08T00:20:32;37.95;;;17.38;;
12968;SDS011;6549;53.128;8.182;2024-03-08T00:23:33;35.17;;;17.05;;
12968;SDS011;6549;53.128;8.182;2024-03-08T00:26:33;33.50;;;17.33;;
12968;SDS011;6549;53.128;8.182;2024-03-08T00:29:34;34.67;;;17.33;;
12968;SDS011;6549;53.128;8.182;2024-03-08T00:32:34;33.60;;;16.88;;
12968;SDS011;6549;53.128;8.182;2024-03-08T00:35:36;34.00;;;17.27;;
12968;SDS011;6549;53.128;8.182;2024-03-08T00:38:36;33.67;;;15.60;;
12968;SDS011;6549;53.128;8.182;2024-03-08T00:41:36;32.45;;;15.77;;
12968;SDS011;6549;53.128;8.182;2024-03-08T00:44:36;30.83;;;15.30;;
12968;SDS011;6549;53.128;8.182;2024-03-08T00:47:37;29.15;;;16.33;;
12968;SDS011;6549;53.128;8.182;2024-03-08T00:50:38;34.10;;;16.23;;
12968;SDS011;6549;53.128;8.182;2024-03-08T00:53:38;35.35;;;16.63;;
12968;SDS011;6549;53.128;8.182;2024-03-08T00:56:39;32.13;;;16.45;;
12968;SDS011;6549;53.128;8.182;2024-03-08T00:59:39;30.83;;;15.90;;
12968;SDS011;6549;53.128;8.182;2024-03-08T01:02:39;33.00;;;16.25;;
12968;SDS011;6549;53.128;8.182;2024-03-08T01:05:40;32.45;;;15.88;;
12968;SDS011;6549;53.128;8.182;2024-03-08T01:08:40;32.30;;;15.77;;
12968;SDS011;6549;53.128;8.182;2024-03-08T01:11:42;31.08;;;15.18;;
12968;SDS011;6549;53.128;8.182;2024-03-08T01:14:42;32.90;;;16.67;;
12968;SDS011;6549;53.128;8.182;2024-03-08T01:17:43;32.15;;;15.45;;
12968;SDS011;6549;53.128;8.182;2024-03-08T01:20:44;31.92;;;16.65;;
12968;SDS011;6549;53.128;8.182;2024-03-08T01:23:44;30.65;;;15.77;;
12968;SDS011;6549;53.128;8.182;2024-03-08T01:26:44;30.63;;;15.23;;
12968;SDS011;6549;53.128;8.182;2024-03-08T01:29:45;32.45;;;15.02;;
12968;SDS011;6549;53.128;8.182;2024-03-08T01:32:45;36.75;;;15.73;;
12968;SDS011;6549;53.128;8.182;2024-03-08T01:35:45;32.30;;;15.57;;
12968;SDS011;6549;53.128;8.182;2024-03-08T01:38:46;31.58;;;15.15;;
12968;SDS011;6549;53.128;8.182;2024-03-08T01:41:46;32.10;;;15.02;;
12968;SDS011;6549;53.128;8.182;2024-03-08T01:44:46;34.40;;;16.73;;
12968;SDS011;6549;53.128;8.182;2024-03-08T01:47:47;30.55;;;16.10;;
12968;SDS011;6549;53.128;8.182;2024-03-08T01:50:48;31.33;;;15.73;;
12968;SDS011;6549;53.128;8.182;2024-03-08T01:53:49;27.67;;;15.63;;
12968;SDS011;6549;53.128;8.182;2024-03-08T01:56:50;32.63;;;16.57;;
12968;SDS011;6549;53.128;8.182;2024-03-08T01:59:53;28.30;;;15.00;;
12968;SDS011;6549;53.128;8.182;2024-03-08T02:02:55;30.58;;;15.60;;
12968;SDS011;6549;53.128;8.182;2024-03-08T02:05:57;30.55;;;15.60;;
12968;SDS011;6549;53.128;8.182;2024-03-08T02:08:59;28.73;;;15.18;;
12968;SDS011;6549;53.128;8.182;2024-03-08T02:12:00;32.33;;;16.50;;
12968;SDS011;6549;53.128;8.182;2024-03-08T02:15:00;29.75;;;14.70;;
12968;SDS011;6549;53.128;8.182;2024-03-08T02:18:01;36.53;;;15.70;;
12968;SDS011;6549;53.128;8.182;2024-03-08T02:21:02;31.40;;;14.93;;
12968;SDS011;6549;53.128;8.182;2024-03-08T02:24:04;31.15;;;15.75;;
12968;SDS011;6549;53.128;8.182;2024-03-08T02:27:05;32.20;;;15.77;;
12968;SDS011;6549;53.128;8.182;2024-03-08T02:30:06;30.75;;;15.40;;
12968;SDS011;6549;53.128;8.182;2024-03-08T02:33:07;35.28;;;15.93;;
12968;SDS011;6549;53.128;8.182;2024-03-08T02:36:09;30.40;;;14.98;;
12968;SDS011;6549;53.128;8.182;2024-03-08T02:39:10;30.35;;;15.60;;
12968;SDS011;6549;53.128;8.182;2024-03-08T02:42:10;29.40;;;15.52;;
12968;SDS011;6549;53.128;8.182;2024-03-08T02:45:10;30.70;;;14.82;;
12968;SDS011;6549;53.128;8.182;2024-03-08T02:48:11;30.52;;;15.30;;
12968;SDS011;6549;53.128;8.182;2024-03-08T02:51:12;32.22;;;14.98;;
12968;SDS011;6549;53.128;8.182;2024-03-08T02:54:13;34.95;;;15.77;;
12968;SDS011;6549;53.128;8.182;2024-03-08T02:57:13;30.10;;;15.05;;
12968;SDS011;6549;53.128;8.182;2024-03-08T03:00:15;32.72;;;14.98;;
12968;SDS011;6549;53.128;8.182;2024-03-08T03:03:15;32.40;;;15.80;;
12968;SDS011;6549;53.128;8.182;2024-03-08T03:06:16;27.48;;;14.75;;
12968;SDS011;6549;53.128;8.182;2024-03-08T03:09:16;30.27;;;15.07;;
12968;SDS011;6549;53.128;8.182;2024-03-08T03:12:23;26.75;;;14.80;;
12968;SDS011;6549;53.128;8.182;2024-03-08T03:15:23;32.15;;;15.13;;
12968;SDS011;6549;53.128;8.182;2024-03-08T03:18:23;30.70;;;14.93;;
12968;SDS011;6549;53.128;8.182;2024-03-08T03:21:27;33.97;;;15.23;;
12968;SDS011;6549;53.128;8.182;2024-03-08T03:24:32;30.10;;;15.90;;
12968;SDS011;6549;53.128;8.182;2024-03-08T03:27:33;29.17;;;15.00;;
12968;SDS011;6549;53.128;8.182;2024-03-08T03:30:33;27.63;;;14.90;;
12968;SDS011;6549;53.128;8.182;2024-03-08T03:33:33;27.42;;;13.77;;
12968;SDS011;6549;53.128;8.182;2024-03-08T03:36:34;31.35;;;15.23;;
12968;SDS011;6549;53.128;8.182;2024-03-08T03:39:35;31.52;;;15.10;;
12968;SDS011;6549;53.128;8.182;2024-03-08T03:42:40;28.48;;;14.48;;
12968;SDS011;6549;53.128;8.182;2024-03-08T03:45:41;28.90;;;14.77;;
12968;SDS011;6549;53.128;8.182;2024-03-08T03:48:41;30.95;;;14.73;;
12968;SDS011;6549;53.128;8.182;2024-03-08T03:51:42;27.55;;;14.80;;
12968;SDS011;6549;53.128;8.182;2024-03-08T03:54:44;30.33;;;14.88;;
12968;SDS011;6549;53.128;8.182;2024-03-08T03:57:44;32.58;;;14.60;;
12968;SDS011;6549;53.128;8.182;2024-03-08T04:00:46;30.38;;;14.90;;
12968;SDS011;6549;53.128;8.182;2024-03-08T04:03:46;29.95;;;15.30;;
12968;SDS011;6549;53.128;8.182;2024-03-08T04:06:47;26.90;;;14.10;;
12968;SDS011;6549;53.128;8.182;2024-03-08T04:09:47;27.70;;;15.63;;
12968;SDS011;6549;53.128;8.182;2024-03-08T04:12:48;28.08;;;14.65;;
12968;SDS011;6549;53.128;8.182;2024-03-08T04:15:48;32.70;;;14.80;;
12968;SDS011;6549;53.128;8.182;2024-03-08T04:18:48;33.40;;;16.55;;
12968;SDS011;6549;53.128;8.182;2024-03-08T04:21:49;29.60;;;14.32;;
12968;SDS011;6549;53.128;8.182;2024-03-08T04:24:49;30.83;;;15.38;;
12968;SDS011;6549;53.128;8.182;2024-03-08T04:27:50;31.95;;;15.90;;
12968;SDS011;6549;53.128;8.182;2024-03-08T04:30:52;28.80;;;15.05;;
12968;SDS011;6549;53.128;8.182;2024-03-08T04:33:52;28.83;;;16.00;;
12968;SDS011;6549;53.128;8.182;2024-03-08T04:36:53;30.02;;;15.25;;
12968;SDS011;6549;53.128;8.182;2024-03-08T04:39:53;30.13;;;14.85;;
12968;SDS011;6549;53.128;8.182;2024-03-08T04:42:53;31.00;;;15.55;;
12968;SDS011;6549;53.128;8.182;2024-03-08T04:45:54;33.60;;;15.05;;
12968;SDS011;6549;53.128;8.182;2024-03-08T04:48:54;31.65;;;14.95;;
12968;SDS011;6549;53.128;8.182;2024-03-08T04:51:54;30.95;;;16.40;;
12968;SDS011;6549;53.128;8.182;2024-03-08T04:54:55;30.83;;;15.10;;
12968;SDS011;6549;53.128;8.182;2024-03-08T04:57:55;26.25;;;14.48;;
12968;SDS011;6549;53.128;8.182;2024-03-08T05:00:55;28.55;;;15.60;;
12968;SDS011;6549;53.128;8.182;2024-03-08T05:03:56;33.25;;;16.23;;
12968;SDS011;6549;53.128;8.182;2024-03-08T05:06:56;30.67;;;15.35;;
12968;SDS011;6549;53.128;8.182;2024-03-08T05:09:57;30.45;;;15.00;;
12968;SDS011;6549;53.128;8.182;2024-03-08T05:12:57;32.08;;;16.00;;
12968;SDS011;6549;53.128;8.182;2024-03-08T05:15:57;33.08;;;16.00;;
12968;SDS011;6549;53.128;8.182;2024-03-08T05:19:01;35.47;;;17.13;;
12968;SDS011;6549;53.128;8.182;2024-03-08T05:22:02;31.98;;;16.08;;
12968;SDS011;6549;53.128;8.182;2024-03-08T05:25:03;32.80;;;16.95;;
12968;SDS011;6549;53.128;8.182;2024-03-08T05:28:03;31.67;;;15.75;;
12968;SDS011;6549;53.128;8.182;2024-03-08T05:31:04;33.83;;;18.05;;
12968;SDS011;6549;53.128;8.182;2024-03-08T05:34:04;32.65;;;16.25;;
12968;SDS011;6549;53.128;8.182;2024-03-08T05:37:04;33.85;;;15.60;;
12968;SDS011;6549;53.128;8.182;2024-03-08T05:40:07;31.30;;;15.70;;
12968;SDS011;6549;53.128;8.182;2024-03-08T05:43:09;30.23;;;17.27;;
12968;SDS011;6549;53.128;8.182;2024-03-08T05:46:09;31.10;;;16.08;;
12968;SDS011;6549;53.128;8.182;2024-03-08T05:49:11;35.53;;;16.63;;
12968;SDS011;6549;53.128;8.182;2024-03-08T05:52:12;33.78;;;16.17;;
12968;SDS011;6549;53.128;8.182;2024-03-08T05:55:12;33.30;;;16.50;;
12968;SDS011;6549;53.128;8.182;2024-03-08T05:58:14;33.03;;;15.98;;
12968;SDS011;6549;53.128;8.182;2024-03-08T06:01:14;34.17;;;16.92;;
12968;SDS011;6549;53.128;8.182;2024-03-08T06:04:15;33.55;;;17.30;;
12968;SDS011;6549;53.128;8.182;2024-03-08T06:07:18;27.35;;;16.02;;
12968;SDS011;6549;53.128;8.182;2024-03-08T06:10:18;33.80;;;17.00;;
12968;SDS011;6549;53.128;8.182;2024-03-08T06:13:19;30.15;;;16.23;;
12968;SDS011;6549;53.128;8.182;2024-03-08T06:16:19;32.55;;;16.52;;
12968;SDS011;6549;53.128;8.182;2024-03-08T06:19:19;34.10;;;17.25;;
12968;SDS011;6549;53.128;8.182;2024-03-08T06:22:20;31.58;;;16.80;;
12968;SDS011;6549;53.128;8.182;2024-03-08T06:25:20;32.40;;;16.27;;
12968;SDS011;6549;53.128;8.182;2024-03-08T06:28:21;32.55;;;16.27;;
12968;SDS011;6549;53.128;8.182;2024-03-08T06:31:21;31.45;;;17.00;;
12968;SDS011;6549;53.128;8.182;2024-03-08T06:34:22;30.85;;;16.48;;
12968;SDS011;6549;53.128;8.182;2024-03-08T06:37:22;34.80;;;16.33;;
12968;SDS011;6549;53.128;8.182;2024-03-08T06:40:23;32.72;;;16.95;;
12968;SDS011;6549;53.128;8.182;2024-03-08T06:43:24;32.38;;;16.63;;
12968;SDS011;6549;53.128;8.182;2024-03-08T06:46:32;31.15;;;15.88;;
12968;SDS011;6549;53.128;8.182;2024-03-08T06:49:33;28.13;;;16.02;;
12968;SDS011;6549;53.128;8.182;2024-03-08T06:52:34;31.75;;;16.52;;
12968;SDS011;6549;53.128;8.182;2024-03-08T06:55:34;27.15;;;14.45;;
12968;SDS011;6549;53.128;8.182;2024-03-08T06:58:35;30.27;;;14.55;;
12968;SDS011;6549;53.128;8.182;2024-03-08T07:01:35;27.58;;;15.13;;
12968;SDS011;6549;53.128;8.182;2024-03-08T07:04:36;28.85;;;14.82;;
12968;SDS011;6549;53.128;8.182;2024-03-08T07:07:38;31.25;;;15.98;;
12968;SDS011;6549;53.128;8.182;2024-03-08T07:10:38;29.10;;;15.40;;
12968;SDS011;6549;53.128;8.182;2024-03-08T07:13:41;30.45;;;15.73;;
12968;SDS011;6549;53.128;8.182;2024-03-08T07:16:42;30.75;;;16.55;;
12968;SDS011;6549;53.128;8.182;2024-03-08T07:19:42;29.65;;;16.05;;
12968;SDS011;6549;53.128;8.182;2024-03-08T07:22:42;31.85;;;16.33;;
12968;SDS011;6549;53.128;8.182;2024-03-08T07:25:43;28.13;;;15.70;;
12968;SDS011;6549;53.128;8.182;2024-03-08T07:28:43;32.35;;;15.82;;
12968;SDS011;6549;53.128;8.182;2024-03-08T07:31:43;30.00;;;16.85;;
12968;SDS011;6549;53.128;8.182;2024-03-08T07:35:02;31.73;;;16.92;;
12968;SDS011;6549;53.128;8.182;2024-03-08T07:38:04;31.48;;;16.42;;
12968;SDS011;6549;53.128;8.182;2024-03-08T07:41:05;29.27;;;16.15;;
12968;SDS011;6549;53.128;8.182;2024-03-08T07:44:08;31.27;;;16.92;;
12968;SDS011;6549;53.128;8.182;2024-03-08T07:47:09;31.60;;;16.63;;
12968;SDS011;6549;53.128;8.182;2024-03-08T07:50:09;28.27;;;15.50;;
12968;SDS011;6549;53.128;8.182;2024-03-08T07:53:10;34.10;;;17.25;;
12968;SDS011;6549;53.128;8.182;2024-03-08T07:56:10;30.90;;;17.23;;
12968;SDS011;6549;53.128;8.182;2024-03-08T07:59:13;29.92;;;17.25;;
12968;SDS011;6549;53.128;8.182;2024-03-08T08:02:13;29.02;;;16.50;;
12968;SDS011;6549;53.128;8.182;2024-03-08T08:05:14;32.50;;;17.50;;
12968;SDS011;6549;53.128;8.182;2024-03-08T08:08:14;30.73;;;16.75;;
12968;SDS011;6549;53.128;8.182;2024-03-08T08:11:15;27.85;;;16.33;;
12968;SDS011;6549;53.128;8.182;2024-03-08T08:14:15;27.35;;;15.02;;
12968;SDS011;6549;53.128;8.182;2024-03-08T08:17:16;30.58;;;16.45;;
12968;SDS011;6549;53.128;8.182;2024-03-08T08:20:16;31.98;;;16.58;;
12968;SDS011;6549;53.128;8.182;2024-03-08T08:23:18;30.52;;;15.98;;
12968;SDS011;6549;53.128;8.182;2024-03-08T08:26:19;30.90;;;16.60;;
12968;SDS011;6549;53.128;8.182;2024-03-08T08:29:21;34.72;;;17.05;;
12968;SDS011;6549;53.128;8.182;2024-03-08T08:32:22;29.23;;;16.30;;
12968;SDS011;6549;53.128;8.182;2024-03-08T08:35:23;27.80;;;15.65;;
12968;SDS011;6549;53.128;8.182;2024-03-08T08:38:24;31.58;;;16.88;;
12968;SDS011;6549;53.128;8.182;2024-03-08T08:41:25;29.42;;;16.70;;
12968;SDS011;6549;53.128;8.182;2024-03-08T08:44:26;29.43;;;16.17;;
12968;SDS011;6549;53.128;8.182;2024-03-08T08:47:27;34.85;;;17.42;;
12968;SDS011;6549;53.128;8.182;2024-03-08T08:50:28;27.38;;;16.90;;
12968;SDS011;6549;53.128;8.182;2024-03-08T08:53:28;32.00;;;17.30;;
12968;SDS011;6549;53.128;8.182;2024-03-08T08:56:29;32.35;;;16.85;;
12968;SDS011;6549;53.128;8.182;2024-03-08T08:59:29;30.75;;;17.00;;
12968;SDS011;6549;53.128;8.182;2024-03-08T09:02:30;28.67;;;16.05;;
12968;SDS011;6549;53.128;8.182;2024-03-08T09:05:30;30.33;;;15.90;;
12968;SDS011;6549;53.128;8.182;2024-03-08T09:08:31;28.23;;;15.75;;
12968;SDS011;6549;53.128;8.182;2024-03-08T09:11:31;28.77;;;15.60;;
12968;SDS011;6549;53.128;8.182;2024-03-08T09:14:31;31.40;;;17.60;;
12968;SDS011;6549;53.128;8.182;2024-03-08T09:17:32;28.77;;;15.70;;
12968;SDS011;6549;53.128;8.182;2024-03-08T09:20:33;28.70;;;15.43;;
12968;SDS011;6549;53.128;8.182;2024-03-08T09:23:33;28.23;;;15.93;;
12968;SDS011;6549;53.128;8.182;2024-03-08T09:26:34;28.33;;;15.68;;
12968;SDS011;6549;53.128;8.182;2024-03-08T09:29:34;28.08;;;15.05;;
12968;SDS011;6549;53.128;8.182;2024-03-08T09:32:35;29.23;;;15.63;;
12968;SDS011;6549;53.128;8.182;2024-03-08T09:35:36;28.50;;;14.88;;
12968;SDS011;6549;53.128;8.182;2024-03-08T09:38:37;31.27;;;16.35;;
12968;SDS011;6549;53.128;8.182;2024-03-08T09:41:39;27.57;;;15.13;;
12968;SDS011;6549;53.128;8.182;2024-03-08T09:44:39;29.13;;;16.35;;
12968;SDS011;6549;53.128;8.182;2024-03-08T09:47:40;26.23;;;15.40;;
12968;SDS011;6549;53.128;8.182;2024-03-08T09:50:42;26.33;;;14.88;;
12968;SDS011;6549;53.128;8.182;2024-03-08T09:53:42;26.20;;;15.63;;
12968;SDS011;6549;53.128;8.182;2024-03-08T09:56:43;28.88;;;16.25;;
12968;SDS011;6549;53.128;8.182;2024-03-08T09:59:45;28.20;;;15.57;;
12968;SDS011;6549;53.128;8.182;2024-03-08T10:02:48;29.60;;;16.45;;
12968;SDS011;6549;53.128;8.182;2024-03-08T10:05:50;28.95;;;16.65;;
12968;SDS011;6549;53.128;8.182;2024-03-08T10:08:50;27.60;;;15.07;;
12968;SDS011;6549;53.128;8.182;2024-03-08T10:11:58;27.27;;;14.68;;
12968;SDS011;6549;53.128;8.182;2024-03-08T10:14:58;28.15;;;15.75;;
12968;SDS011;6549;53.128;8.182;2024-03-08T10:17:59;25.98;;;14.80;;
12968;SDS011;6549;53.128;8.182;2024-03-08T10:21:06;26.30;;;14.95;;
12968;SDS011;6549;53.128;8.182;2024-03-08T10:24:10;26.48;;;16.67;;
12968;SDS011;6549;53.128;8.182;2024-03-08T10:27:10;26.45;;;14.75;;
12968;SDS011;6549;53.128;8.182;2024-03-08T10:30:14;25.52;;;15.45;;
12968;SDS011;6549;53.128;8.182;2024-03-08T10:33:19;28.65;;;16.13;;
12968;SDS011;6549;53.128;8.182;2024-03-08T10:36:20;31.45;;;17.30;;
12968;SDS011;6549;53.128;8.182;2024-03-08T10:42:22;27.45;;;14.98;;
12968;SDS011;6549;53.128;8.182;2024-03-08T10:45:35;26.48;;;15.23;;
12968;SDS011;6549;53.128;8.182;2024-03-08T10:48:39;24.67;;;15.23;;
12968;SDS011;6549;53.128;8.182;2024-03-08T10:51:44;26.63;;;16.65;;
12968;SDS011;6549;53.128;8.182;2024-03-08T10:54:47;28.90;;;15.63;;
12968;SDS011;6549;53.128;8.182;2024-03-08T10:57:49;28.75;;;16.38;;
12968;SDS011;6549;53.128;8.182;2024-03-08T11:00:51;26.58;;;15.93;;
12968;SDS011;6549;53.128;8.182;2024-03-08T11:03:53;27.25;;;15.80;;
12968;SDS011;6549;53.128;8.182;2024-03-08T11:07:02;28.90;;;16.25;;
12968;SDS011;6549;53.128;8.182;2024-03-08T11:10:06;29.38;;;15.43;;
12968;SDS011;6549;53.128;8.182;2024-03-08T11:13:34;27.95;;;15.77;;
12968;SDS011;6549;53.128;8.182;2024-03-08T11:19:36;30.83;;;16.27;;
12968;SDS011;6549;53.128;8.182;2024-03-08T11:22:36;26.58;;;15.43;;
12968;SDS011;6549;53.128;8.182;2024-03-08T11:25:41;30.17;;;16.92;;
12968;SDS011;6549;53.128;8.182;2024-03-08T11:28:44;28.67;;;15.55;;
12968;SDS011;6549;53.128;8.182;2024-03-08T11:31:44;28.60;;;15.48;;
12968;SDS011;6549;53.128;8.182;2024-03-08T11:34:46;28.35;;;17.05;;
12968;SDS011;6549;53.128;8.182;2024-03-08T11:37:47;28.10;;;15.97;;
12968;SDS011;6549;53.128;8.182;2024-03-08T11:40:48;27.20;;;15.88;;
12968;SDS011;6549;53.128;8.182;2024-03-08T11:44:10;26.67;;;15.15;;
12968;SDS011;6549;53.128;8.182;2024-03-08T11:47:11;25.98;;;15.38;;
12968;SDS011;6549;53.128;8.182;2024-03-08T11:50:12;27.35;;;16.17;;
12968;SDS011;6549;53.128;8.182;2024-03-08T11:53:13;26.88;;;16.27;;
12968;SDS011;6549;53.128;8.182;2024-03-08T11:56:15;27.83;;;16.52;;
12968;SDS011;6549;53.128;8.182;2024-03-08T11:59:16;23.58;;;14.27;;
12968;SDS011;6549;53.128;8.182;2024-03-08T12:02:17;29.73;;;16.08;;
12968;SDS011;6549;53.128;8.182;2024-03-08T12:05:19;27.88;;;16.63;;
12968;SDS011;6549;53.128;8.182;2024-03-08T12:08:19;30.33;;;16.35;;
12968;SDS011;6549;53.128;8.182;2024-03-08T12:11:20;26.80;;;15.88;;
12968;SDS011;6549;53.128;8.182;2024-03-08T12:14:23;26.88;;;15.43;;
12968;SDS011;6549;53.128;8.182;2024-03-08T12:17:24;24.07;;;15.07;;
12968;SDS011;6549;53.128;8.182;2024-03-08T12:20:25;25.85;;;15.52;;
12968;SDS011;6549;53.128;8.182;2024-03-08T12:23:27;28.27;;;15.93;;
12968;SDS011;6549;53.128;8.182;2024-03-08T12:26:27;27.58;;;15.32;;
12968;SDS011;6549;53.128;8.182;2024-03-08T12:29:27;25.65;;;15.57;;
12968;SDS011;6549;53.128;8.182;2024-03-08T12:32:28;26.70;;;15.70;;
12968;SDS011;6549;53.128;8.182;2024-03-08T12:35:29;29.40;;;16.27;;
12968;SDS011;6549;53.128;8.182;2024-03-08T12:38:31;25.85;;;15.23;;
12968;SDS011;6549;53.128;8.182;2024-03-08T12:41:32;25.77;;;16.10;;
12968;SDS011;6549;53.128;8.182;2024-03-08T12:44:39;28.65;;;16.73;;
12968;SDS011;6549;53.128;8.182;2024-03-08T12:47:43;28.80;;;15.60;;
12968;SDS011;6549;53.128;8.182;2024-03-08T12:50:44;26.75;;;15.13;;
12968;SDS011;6549;53.128;8.182;2024-03-08T12:53:45;26.35;;;15.23;;
12968;SDS011;6549;53.128;8.182;2024-03-08T12:56:46;26.15;;;15.88;;
12968;SDS011;6549;53.128;8.182;2024-03-08T12:59:47;25.85;;;15.40;;
12968;SDS011;6549;53.128;8.182;2024-03-08T13:02:49;22.20;;;14.25;;
12968;SDS011;6549;53.128;8.182;2024-03-08T13:05:51;24.02;;;14.20;;
12968;SDS011;6549;53.128;8.182;2024-03-08T13:08:52;24.60;;;14.13;;
12968;SDS011;6549;53.128;8.182;2024-03-08T13:11:53;23.17;;;14.23;;
12968;SDS011;6549;53.128;8.182;2024-03-08T13:14:55;23.50;;;14.32;;
12968;SDS011;6549;53.128;8.182;2024-03-08T13:17:56;23.55;;;13.77;;
12968;SDS011;6549;53.128;8.182;2024-03-08T13:20:59;22.48;;;13.27;;
12968;SDS011;6549;53.128;8.182;2024-03-08T13:24:05;22.00;;;13.07;;
12968;SDS011;6549;53.128;8.182;2024-03-08T13:27:06;23.38;;;14.00;;
12968;SDS011;6549;53.128;8.182;2024-03-08T13:30:19;25.10;;;14.25;;
12968;SDS011;6549;53.128;8.182;2024-03-08T13:33:23;24.02;;;13.80;;
12968;SDS011;6549;53.128;8.182;2024-03-08T13:36:24;21.75;;;14.18;;
12968;SDS011;6549;53.128;8.182;2024-03-08T13:39:29;21.17;;;13.60;;
12968;SDS011;6549;53.128;8.182;2024-03-08T13:42:31;23.27;;;14.55;;
12968;SDS011;6549;53.128;8.182;2024-03-08T13:45:32;23.67;;;13.95;;
12968;SDS011;6549;53.128;8.182;2024-03-08T13:48:33;22.85;;;13.75;;
12968;SDS011;6549;53.128;8.182;2024-03-08T13:51:34;26.02;;;14.85;;
12968;SDS011;6549;53.128;8.182;2024-03-08T13:54:34;23.20;;;14.10;;
12968;SDS011;6549;53.128;8.182;2024-03-08T13:57:35;25.70;;;15.13;;
12968;SDS011;6549;53.128;8.182;2024-03-08T14:00:36;22.55;;;13.95;;
12968;SDS011;6549;53.128;8.182;2024-03-08T14:03:37;23.02;;;14.13;;
12968;SDS011;6549;53.128;8.182;2024-03-08T14:06:37;23.38;;;14.30;;
12968;SDS011;6549;53.128;8.182;2024-03-08T14:09:37;22.98;;;14.52;;
12968;SDS011;6549;53.128;8.182;2024-03-08T14:12:42;23.50;;;14.40;;
12968;SDS011;6549;53.128;8.182;2024-03-08T14:15:44;25.48;;;14.80;;
12968;SDS011;6549;53.128;8.182;2024-03-08T14:18:46;25.70;;;14.75;;
12968;SDS011;6549;53.128;8.182;2024-03-08T14:21:46;23.55;;;14.82;;
12968;SDS011;6549;53.128;8.182;2024-03-08T14:24:48;25.15;;;14.77;;
12968;SDS011;6549;53.128;8.182;2024-03-08T14:27:50;24.00;;;14.57;;
12968;SDS011;6549;53.128;8.182;2024-03-08T14:30:54;26.17;;;14.98;;
12968;SDS011;6549;53.128;8.182;2024-03-08T14:33:54;23.08;;;15.32;;
12968;SDS011;6549;53.128;8.182;2024-03-08T14:36:55;26.45;;;15.60;;
12968;SDS011;6549;53.128;8.182;2024-03-08T14:39:56;23.58;;;14.30;;
12968;SDS011;6549;53.128;8.182;2024-03-08T14:42:56;24.60;;;15.30;;
12968;SDS011;6549;53.128;8.182;2024-03-08T14:45:57;24.38;;;15.70;;
12968;SDS011;6549;53.128;8.182;2024-03-08T14:48:57;25.75;;;15.60;;
12968;SDS011;6549;53.128;8.182;2024-03-08T14:51:57;26.48;;;15.27;;
12968;SDS011;6549;53.128;8.182;2024-03-08T14:54:58;24.65;;;15.13;;
12968;SDS011;6549;53.128;8.182;2024-03-08T14:57:58;24.17;;;14.23;;
12968;SDS011;6549;53.128;8.182;2024-03-08T15:00:58;25.52;;;15.50;;
12968;SDS011;6549;53.128;8.182;2024-03-08T15:04:00;22.52;;;14.13;;
12968;SDS011;6549;53.128;8.182;2024-03-08T15:07:08;22.50;;;14.40;;
12968;SDS011;6549;53.128;8.182;2024-03-08T15:10:09;24.75;;;15.18;;
12968;SDS011;6549;53.128;8.182;2024-03-08T15:13:16;23.75;;;14.82;;
12968;SDS011;6549;53.128;8.182;2024-03-08T15:16:21;25.60;;;14.95;;
12968;SDS011;6549;53.128;8.182;2024-03-08T15:19:24;21.45;;;13.35;;
12968;SDS011;6549;53.128;8.182;2024-03-08T15:22:25;28.63;;;19.10;;
12968;SDS011;6549;53.128;8.182;2024-03-08T15:25:25;36.95;;;26.92;;
12968;SDS011;6549;53.128;8.182;2024-03-08T15:28:26;23.35;;;14.43;;
12968;SDS011;6549;53.128;8.182;2024-03-08T15:31:34;25.33;;;16.40;;
12968;SDS011;6549;53.128;8.182;2024-03-08T15:34:34;22.08;;;14.18;;
12968;SDS011;6549;53.128;8.182;2024-03-08T15:37:38;26.63;;;14.60;;
12968;SDS011;6549;53.128;8.182;2024-03-08T15:40:38;28.50;;;16.00;;
12968;SDS011;6549;53.128;8.182;2024-03-08T15:43:39;25.83;;;15.38;;
12968;SDS011;6549;53.128;8.182;2024-03-08T15:46:40;24.70;;;14.90;;
12968;SDS011;6549;53.128;8.182;2024-03-08T15:49:46;27.30;;;14.77;;
12968;SDS011;6549;53.128;8.182;2024-03-08T15:52:48;25.67;;;14.20;;
12968;SDS011;6549;53.128;8.182;2024-03-08T15:55:48;24.80;;;14.20;;
12968;SDS011;6549;53.128;8.182;2024-03-08T15:58:49;22.90;;;14.18;;
12968;SDS011;6549;53.128;8.182;2024-03-08T16:01:49;25.48;;;14.60;;
12968;SDS011;6549;53.128;8.182;2024-03-08T16:04:52;28.27;;;16.77;;
12968;SDS011;6549;53.128;8.182;2024-03-08T16:07:53;27.88;;;16.10;;
12968;SDS011;6549;53.128;8.182;2024-03-08T16:10:55;32.55;;;17.55;;
12968;SDS011;6549;53.128;8.182;2024-03-08T16:13:56;29.00;;;18.08;;
12968;SDS011;6549;53.128;8.182;2024-03-08T16:16:57;29.15;;;17.98;;
12968;SDS011;6549;53.128;8.182;2024-03-08T16:19:58;32.03;;;18.27;;
12968;SDS011;6549;53.128;8.182;2024-03-08T16:22:59;29.58;;;17.92;;
12968;SDS011;6549;53.128;8.182;2024-03-08T16:25:59;27.42;;;16.50;;
12968;SDS011;6549;53.128;8.182;2024-03-08T16:28:59;29.58;;;17.10;;
12968;SDS011;6549;53.128;8.182;2024-03-08T16:32:00;27.67;;;16.77;;
12968;SDS011;6549;53.128;8.182;2024-03-08T16:35:00;27.70;;;16.60;;
12968;SDS011;6549;53.128;8.182;2024-03-08T16:38:01;26.20;;;15.65;;
12968;SDS011;6549;53.128;8.182;2024-03-08T16:41:01;23.17;;;14.07;;
12968;SDS011;6549;53.128;8.182;2024-03-08T16:44:03;23.40;;;14.45;;
12968;SDS011;6549;53.128;8.182;2024-03-08T16:47:04;24.02;;;13.93;;
12968;SDS011;6549;53.128;8.182;2024-03-08T16:50:04;22.77;;;14.60;;
12968;SDS011;6549;53.128;8.182;2024-03-08T16:53:06;25.48;;;13.90;;
12968;SDS011;6549;53.128;8.182;2024-03-08T16:56:06;24.13;;;14.68;;
12968;SDS011;6549;53.128;8.182;2024-03-08T16:59:06;24.30;;;14.13;;
12968;SDS011;6549;53.128;8.182;2024-03-08T17:02:08;25.40;;;14.68;;
12968;SDS011;6549;53.128;8.182;2024-03-08T17:05:10;26.00;;;14.83;;
12968;SDS011;6549;53.128;8.182;2024-03-08T17:08:10;29.40;;;15.77;;
12968;SDS011;6549;53.128;8.182;2024-03-08T17:11:11;27.50;;;15.65;;
12968;SDS011;6549;53.128;8.182;2024-03-08T17:14:12;29.92;;;16.13;;
12968;SDS011;6549;53.128;8.182;2024-03-08T17:17:12;27.00;;;16.15;;
12968;SDS011;6549;53.128;8.182;2024-03-08T17:20:13;30.25;;;15.15;;
12968;SDS011;6549;53.128;8.182;2024-03-08T17:23:15;25.70;;;15.38;;
12968;SDS011;6549;53.128;8.182;2024-03-08T17:26:16;27.33;;;15.80;;
12968;SDS011;6549;53.128;8.182;2024-03-08T17:29:18;25.10;;;15.32;;
12968;SDS011;6549;53.128;8.182;2024-03-08T17:32:18;24.88;;;14.70;;
12968;SDS011;6549;53.128;8.182;2024-03-08T17:35:19;31.40;;;17.50;;
12968;SDS011;6549;53.128;8.182;2024-03-08T17:38:23;36.42;;;18.20;;
12968;SDS011;6549;53.128;8.182;2024-03-08T17:41:24;29.35;;;17.08;;
12968;SDS011;6549;53.128;8.182;2024-03-08T17:44:25;34.97;;;18.52;;
12968;SDS011;6549;53.128;8.182;2024-03-08T17:47:26;24.58;;;14.25;;
12968;SDS011;6549;53.128;8.182;2024-03-08T17:50:26;25.63;;;13.73;;
12968;SDS011;6549;53.128;8.182;2024-03-08T17:53:28;23.63;;;13.27;;
12968;SDS011;6549;53.128;8.182;2024-03-08T17:59:30;25.00;;;13.63;;
12968;SDS011;6549;53.128;8.182;2024-03-08T18:02:31;25.50;;;14.15;;
12968;SDS011;6549;53.128;8.182;2024-03-08T18:05:31;27.48;;;14.77;;